Latest Weather Observations for Sydney - Observatory Hill

IDN60801

Issued at 6:03 am EST Friday 29 May 2015 (issued every 30 minutes, with the page automatically refreshed every 10 minutes)

About weather observations | Map of weather stations | Latest weather observations for NSW | Other Formats
Station Details ID: 066062 Name: SYDNEY (OBSERVATORY HILL) Lat: -33.86 Lon: 151.21 Height: 39.0 m
Data from the previous 72 hours. | See also: Recent months at Sydney - Observatory Hill

* Apparent temperature (App Temp) for Sydney - Observatory Hill is calculated using temperature observations collected at Sydney - Observatory Hill and wind observations collected at Fort Denison, as wind observations are not currently provided for Sydney - Observatory Hill.

Date/Time
EST
Temp
°C
App
Temp
°C
Dew
Point
Rel
Hum
%
Delta-T
°C
Wind Press
QNH
hPa
Press
MSL
hPa
Rain
since 9 am
mm
Dir
 
Spd
km/h
Gust
km/h
Spd
kts
Gust
kts
29/06:00am 17.0 16.3 11.3 69 3.1 NW 6 - 3 - 1019.0 1019.0 0.0
29/05:30am 17.2 15.9 11.2 68 3.2 NW 9 - 5 - 1018.6 1018.6 0.0
29/05:00am 17.4 16.2 11.7 69 3.1 NW 9 - 5 - 1018.6 1018.6 0.0
29/04:30am 17.1 16.5 11.6 70 3.0 NW 6 - 3 - 1018.3 1018.3 0.0
29/04:00am 17.2 14.5 11.7 70 3.0 N 17 - 9 - 1018.0 1018.0 0.0
29/03:30am 17.1 14.8 11.8 71 2.9 N 15 - 8 - 1018.2 1018.2 0.0
29/03:00am 17.1 15.2 11.8 71 2.9 NNW 13 - 7 - 1018.4 1018.4 0.0
29/02:30am 17.1 15.3 12.0 72 2.8 NNW 13 - 7 - 1018.6 1018.6 0.0
29/02:00am 17.1 14.6 12.2 73 2.7 NNW 17 - 9 - 1019.0 1019.0 0.0
29/01:30am 16.7 15.8 12.5 76 2.3 WNW 9 - 5 - 1019.2 1019.2 0.0
29/01:00am 17.0 16.3 11.5 70 3.0 NNW 6 - 3 - 1019.5 1019.5 0.0
29/12:30am 17.1 16.3 11.2 68 3.2 N 6 - 3 - 1019.5 1019.5 0.0
29/12:00am 17.3 16.0 11.1 67 3.3 NNW 9 - 5 - 1020.0 1019.9 0.0
 
Date/Time
EST
Temp
°C
App
Temp
°C
Dew
Point
Rel
Hum
%
Delta-T
°C
Wind Press
QNH
hPa
Press
MSL
hPa
Rain
since 9 am
mm
Dir
 
Spd
km/h
Gust
km/h
Spd
kts
Gust
kts
28/11:30pm 17.7 14.9 11.3 66 3.5 NNW 17 - 9 - 1020.1 1020.0 0.0
28/11:00pm 17.3 15.4 11.8 70 3.0 NNW 13 - 7 - 1020.3 1020.2 0.0
28/10:30pm 17.2 15.6 11.7 70 3.0 NW 11 - 6 - 1020.5 1020.4 0.0
28/10:00pm 17.5 14.8 11.8 69 3.1 NNW 17 - 9 - 1020.8 1020.7 0.0
28/09:30pm 17.3 15.9 12.2 72 2.8 NNW 11 - 6 - 1020.6 1020.5 0.0
28/09:00pm 17.0 15.1 13.1 78 2.2 NW 15 - 8 - 1020.7 1020.6 0.0
28/08:30pm 16.8 17.2 13.7 82 1.8 WNW 4 - 2 - 1020.9 1020.8 0.0
28/08:00pm 16.7 16.7 13.6 82 1.7 W 6 - 3 - 1020.8 1020.7 0.0
28/07:30pm 17.1 17.2 12.8 76 2.4 NNW 4 - 2 - 1020.7 1020.6 0.0
28/07:00pm 17.1 17.6 12.8 76 2.4 W 2 - 1 - 1020.6 1020.5 0.0
28/06:30pm 17.2 18.0 12.7 75 2.5 CALM 0 - 0 - 1020.8 1020.7 0.0
28/06:00pm 17.8 17.9 12.7 72 2.8 NNE 4 - 2 - 1020.7 1020.6 0.0
28/05:30pm 18.4 18.8 12.6 69 3.2 WSW 2 - 1 - 1020.5 1020.4 0.0
28/05:00pm 19.3 19.1 13.0 67 3.6 NNE 6 - 3 - 1020.4 1020.3 0.0
28/04:30pm 19.9 19.1 12.9 64 4.0 NE 9 - 5 - 1020.3 1020.2 0.0
28/04:00pm 20.1 19.9 11.8 59 4.6 E 4 - 2 - 1020.0 1019.9 0.0
28/03:30pm 20.3 19.9 12.3 60 4.5 E 6 - 3 - 1020.2 1020.1 0.0
28/03:00pm 20.3 20.3 12.3 60 4.5 ENE 4 - 2 - 1020.3 1020.2 0.0
28/02:30pm 20.4 19.1 11.3 56 5.0 E 9 - 5 - 1020.1 1020.0 0.0
28/02:00pm 20.6 19.7 11.2 55 5.2 E 7 - 4 - 1020.3 1020.2 0.0
28/01:30pm 20.0 18.8 11.7 59 4.6 E 9 - 5 - 1020.4 1020.3 0.0
28/01:00pm 19.7 17.5 10.9 57 4.8 E 13 - 7 - 1020.8 1020.7 0.0
28/12:30pm 20.3 19.7 8.9 48 6.0 ESE 2 - 1 - 1021.3 1021.2 0.0
28/12:00pm 18.2 18.2 11.3 64 3.7 SW 2 - 1 - 1021.9 1021.8 0.0
28/11:30am 16.7 15.7 10.3 66 3.4 W 6 - 3 - 1022.2 1022.1 0.0
28/11:00am 16.5 14.6 10.4 67 3.2 WNW 11 - 6 - 1023.1 1023.0 0.0
28/10:30am 15.5 13.4 11.1 75 2.4 WNW 13 - 7 - 1023.5 1023.4 0.0
28/10:00am 15.4 12.9 11.2 76 2.2 WNW 15 - 8 - 1023.8 1023.7 0.0
28/09:30am 14.6 12.2 11.4 81 1.7 W 15 - 8 - 1023.8 1023.7 0.0
28/09:00am 13.6 11.7 10.6 82 1.6 WNW 11 - 6 - 1023.7 1023.6 0.0
28/08:30am 13.3 11.1 10.7 84 1.4 WNW 13 - 7 - 1023.7 1023.6 0.0
28/08:00am 12.6 10.8 10.7 88 1.0 W 11 - 6 - 1023.4 1023.3 0.0
28/07:30am 12.5 10.7 10.9 90 0.8 W 11 - 6 - 1023.3 1023.2 0.0
28/07:00am 11.9 9.3 10.6 92 0.7 W 15 - 8 - 1023.3 1023.2 0.0
28/06:30am 11.8 9.5 10.4 91 0.7 W 13 - 7 - 1023.2 1023.1 0.0
28/06:00am 11.7 9.4 10.3 91 0.7 W 13 - 7 - 1022.7 1022.6 0.0
28/05:30am 12.1 9.9 10.7 91 0.7 W 13 - 7 - 1022.3 1022.2 0.0
28/05:00am 12.1 9.5 10.7 91 0.7 W 15 - 8 - 1022.2 1022.1 0.0
28/04:30am 12.3 10.1 10.7 90 0.8 WNW 13 - 7 - 1022.3 1022.2 0.0
28/04:00am 11.9 9.2 10.5 91 0.7 W 15 - 8 - 1022.4 1022.3 0.0
28/03:30am 12.5 10.2 10.6 88 1.0 W 13 - 7 - 1022.4 1022.3 0.0
28/03:00am 12.2 10.3 10.4 89 0.9 W 11 - 6 - 1022.4 1022.3 0.0
28/02:30am 13.0 10.7 10.5 85 1.3 W 13 - 7 - 1022.5 1022.4 0.0
28/02:00am 13.1 10.8 10.6 85 1.3 W 13 - 7 - 1022.6 1022.5 0.0
28/01:30am 12.6 10.3 10.5 87 1.1 W 13 - 7 - 1022.9 1022.8 0.0
28/01:00am 12.5 10.2 10.4 87 1.1 WSW 13 - 7 - 1022.9 1022.8 0.0
28/12:30am 12.8 10.1 10.3 85 1.3 W 15 - 8 - 1022.8 1022.7 0.0
28/12:00am 13.1 10.1 10.5 84 1.3 W 17 - 9 - 1022.9 1022.8 0.0
 
Date/Time
EST
Temp
°C
App
Temp
°C
Dew
Point
Rel
Hum
%
Delta-T
°C
Wind Press
QNH
hPa
Press
MSL
hPa
Rain
since 9 am
mm
Dir
 
Spd
km/h
Gust
km/h
Spd
kts
Gust
kts
27/11:30pm 13.6 11.3 10.4 81 1.7 WNW 13 - 7 - 1023.0 1022.9 0.0
27/11:00pm 13.3 10.9 10.1 81 1.6 WNW 13 - 7 - 1023.0 1022.9 0.0
27/10:30pm 13.8 11.3 9.8 77 2.1 WNW 13 - 7 - 1022.8 1022.7 0.0
27/10:00pm 14.1 11.6 9.7 75 2.3 W 13 - 7 - 1022.9 1022.8 0.0
27/09:30pm 14.5 11.6 9.7 73 2.5 WNW 15 - 8 - 1023.1 1023.0 0.0
27/09:00pm 14.6 11.5 9.0 69 2.8 WNW 15 - 8 - 1023.1 1023.0 0.0
27/08:30pm 14.3 11.7 9.3 72 2.6 WNW 13 - 7 - 1023.0 1022.9 0.0
27/08:00pm 15.0 12.6 8.7 66 3.2 WNW 11 - 6 - 1022.9 1022.8 0.0
27/07:30pm 15.5 13.1 8.5 63 3.6 W 11 - 6 - 1022.7 1022.6 0.0
27/07:00pm 15.6 14.0 8.1 61 3.8 WNW 6 - 3 - 1022.6 1022.5 0.0
27/06:30pm 15.6 14.1 8.4 62 3.7 WNW 6 - 3 - 1022.2 1022.1 0.0
27/06:00pm 15.8 14.8 8.8 63 3.6 NW 4 - 2 - 1021.9 1021.8 0.0
27/05:30pm 16.1 14.1 8.8 62 3.7 NW 9 - 5 - 1021.8 1021.7 0.0
27/05:00pm 16.9 14.9 8.8 59 4.2 WNW 9 - 5 - 1021.6 1021.5 0.0
27/04:30pm 18.0 16.4 8.6 54 4.9 WNW 7 - 4 - 1021.6 1021.5 0.0
27/04:00pm 18.7 17.1 7.8 49 5.6 WNW 6 - 3 - 1021.5 1021.4 0.0
27/03:30pm 19.2 16.7 6.7 44 6.3 NW 9 - 5 - 1021.6 1021.5 0.0
27/03:00pm 20.5 18.0 6.4 40 7.1 WNW 9 - 5 - 1021.7 1021.6 0.0
27/02:30pm 20.9 18.6 5.7 37 7.6 WNW 7 - 4 - 1021.8 1021.7 0.0
27/02:00pm 20.9 18.5 5.3 36 7.7 W 7 - 4 - 1021.7 1021.6 0.0
27/01:30pm 21.3 19.1 6.4 38 7.5 W 7 - 4 - 1022.1 1022.0 0.0
27/01:00pm 19.8 17.8 7.2 44 6.4 WSW 7 - 4 - 1022.3 1022.2 0.0
27/12:30pm 19.1 16.9 7.8 48 5.8 W 9 - 5 - 1022.9 1022.8 0.0
27/12:00pm 17.1 14.1 7.7 54 4.7 W 13 - 7 - 1023.4 1023.3 0.0
27/11:30am 16.4 13.5 8.1 58 4.2 WSW 13 - 7 - 1024.1 1024.0 0.0
27/11:00am 16.1 12.4 8.1 59 4.0 W 17 - 9 - 1024.7 1024.6 0.0
27/10:30am 14.9 12.4 8.4 65 3.3 W 11 - 6 - 1024.9 1024.8 0.0
27/10:00am 14.7 11.4 8.2 65 3.2 WNW 15 - 8 - 1025.3 1025.2 0.0
27/09:30am 13.5 10.1 7.5 67 2.9 WNW 15 - 8 - 1025.5 1025.4 0.0
27/09:00am 13.1 9.7 7.5 69 2.7 W 15 - 8 - 1025.5 1025.4 0.0
27/08:30am 12.9 8.7 7.4 69 2.7 W 19 - 10 - 1025.6 1025.5 0.0
27/08:00am 12.3 8.4 9.3 82 1.5 W 20 - 11 - 1025.4 1025.3 0.0
27/07:30am 11.7 8.0 9.4 86 1.2 W 19 - 10 - 1024.9 1024.8 0.0
27/07:00am 11.0 8.3 9.1 88 0.9 W 13 - 7 - 1024.5 1024.4 0.0
27/06:30am 11.0 8.7 8.9 87 1.0 WNW 11 - 6 - 1024.3 1024.2 0.0
27/06:00am 11.4 9.1 9.1 86 1.1 WNW 11 - 6 - 1024.4 1024.3 0.0
27/05:30am 11.5 8.5 9.4 87 1.1 W 15 - 8 - 1024.6 1024.5 0.0
27/05:00am 11.6 9.5 9.7 88 1.0 WNW 11 - 6 - 1024.3 1024.2 0.0
27/04:30am 11.7 9.2 9.8 88 1.0 WNW 13 - 7 - 1024.2 1024.1 0.0
27/04:00am 11.5 9.4 9.6 88 1.0 WNW 11 - 6 - 1024.4 1024.3 0.0
27/03:30am 11.6 9.5 9.7 88 1.0 WNW 11 - 6 - 1024.6 1024.5 0.0
27/03:00am 11.8 9.4 9.9 88 1.0 WNW 13 - 7 - 1025.1 1025.0 0.0
27/02:30am 12.3 9.6 10.4 88 1.0 WNW 15 - 8 - 1025.5 1025.4 0.0
27/02:00am 12.6 10.3 10.3 86 1.2 W 13 - 7 - 1025.3 1025.2 0.0
27/01:30am 12.7 9.3 10.6 87 1.1 W 19 - 10 - 1025.5 1025.4 0.0
27/01:00am 12.9 9.6 10.8 87 1.1 W 19 - 10 - 1025.6 1025.5 0.0
27/12:30am 12.9 9.9 10.8 87 1.1 W 17 - 9 - 1025.8 1025.7 0.0
27/12:00am 13.0 10.5 10.9 87 1.1 W 15 - 8 - 1025.5 1025.4 0.0
 
Date/Time
EST
Temp
°C
App
Temp
°C
Dew
Point
Rel
Hum
%
Delta-T
°C
Wind Press
QNH
hPa
Press
MSL
hPa
Rain
since 9 am
mm
Dir
 
Spd
km/h
Gust
km/h
Spd
kts
Gust
kts
26/11:30pm 13.2 12.7 10.7 85 1.3 ENE 4 - 2 - 1025.4 1025.3 0.0
26/11:00pm 13.2 11.3 10.4 83 1.4 W 11 - 6 - 1026.0 1025.9 0.0
26/10:30pm 13.4 10.4 10.6 83 1.5 W 17 - 9 - 1026.5 1026.4 0.0
26/10:00pm 13.5 11.4 11.2 86 1.2 W 13 - 7 - 1026.5 1026.4 0.0
26/09:30pm 13.3 11.1 10.7 84 1.4 W 13 - 7 - 1026.6 1026.5 0.0
26/09:00pm 13.6 11.5 11.3 86 1.2 W 13 - 7 - 1026.6 1026.5 0.0
26/08:30pm 13.6 11.0 10.8 83 1.5 W 15 - 8 - 1026.7 1026.6 0.0
26/08:00pm 13.8 11.7 11.0 83 1.5 W 13 - 7 - 1026.8 1026.7 0.0
26/07:30pm 14.0 11.0 10.6 80 1.8 W 17 - 9 - 1027.2 1027.1 0.0
26/07:00pm 14.3 11.5 11.3 82 1.6 W 17 - 9 - 1027.1 1027.0 0.0
26/06:30pm 14.5 12.2 11.8 84 1.5 W 15 - 8 - 1026.7 1026.6 0.0
26/06:00pm 15.0 14.5 10.6 75 2.3 NNW 4 - 2 - 1026.3 1026.2 0.0
26/05:30pm 15.5 14.5 9.0 65 3.3 SSW 4 - 2 - 1026.2 1026.1 0.0
26/05:00pm 15.7 14.7 8.9 64 3.5 S 4 - 2 - 1026.2 1026.1 0.0
26/04:30pm 16.2 14.5 8.4 60 4.0 S 7 - 4 - 1026.1 1026.0 0.0
26/04:00pm 16.7 14.7 8.7 59 4.1 SSE 9 - 5 - 1026.2 1026.1 0.0
26/03:30pm 17.3 15.2 8.4 56 4.6 S 9 - 5 - 1026.3 1026.2 0.0
26/03:00pm 17.9 15.9 8.7 55 4.7 SSE 9 - 5 - 1026.7 1026.6 0.0
26/02:30pm 18.5 16.6 9.0 54 5.0 S 9 - 5 - 1026.6 1026.5 0.0
26/02:00pm 18.5 17.1 9.6 56 4.7 S 7 - 4 - 1026.8 1026.7 0.0
26/01:30pm 18.2 16.7 9.3 56 4.7 SSW 7 - 4 - 1027.1 1027.0 0.0
26/01:00pm 17.6 15.7 9.0 57 4.4 W 9 - 5 - 1027.4 1027.3 0.0
26/12:30pm 17.7 15.4 9.1 57 4.5 WNW 11 - 6 - 1027.8 1027.8 0.0
26/12:00pm 16.3 13.3 7.8 57 4.2 WNW 13 - 7 - 1028.3 1028.3 0.0
26/11:30am 15.5 11.8 7.8 60 3.9 W 17 - 9 - 1028.9 1028.9 0.0
26/11:00am 14.5 10.7 7.5 63 3.4 W 17 - 9 - 1029.4 1029.4 0.0
26/10:30am 13.4 9.1 7.0 65 3.1 WNW 19 - 10 - 1029.6 1029.6 0.0
26/10:00am 12.9 8.4 6.9 67 2.9 WNW 20 - 11 - 1029.8 1029.8 0.0
26/09:30am 11.3 6.5 5.8 69 2.6 W 20 - 11 - 1030.0 1030.0 0.0
26/09:00am 10.4 5.0 6.5 77 1.8 W 24 - 13 - 1030.0 1030.0 0.0
26/08:30am 9.7 4.3 6.2 79 1.6 W 24 - 13 - 1030.0 1030.0 0.0
26/08:00am 9.5 4.2 6.6 82 1.3 W 24 - 13 - 1029.9 1029.9 0.0
26/07:30am 9.3 4.7 6.6 83 1.3 W 20 - 11 - 1029.5 1029.5 0.0
26/07:00am 8.8 3.8 6.6 86 1.0 W 22 - 12 - 1029.4 1029.4 0.0
26/06:30am 9.0 4.4 6.6 85 1.1 WNW 20 - 11 - 1029.1 1029.1 0.0

Other Formats:

Comma delimited format used in spreadsheet applications
http://www.bom.gov.au/fwo/IDN60801/IDN60801.94768.axf

JavaScript Object Notation format (JSON) in row-major order
http://www.bom.gov.au/fwo/IDN60801/IDN60801.94768.json